Astrodome, Texas
Current Conditions -  °F | °C
As of 6:55 PM on Sunday 21 Dec 2014 (Local Time) from KMCJ Reporting Station
Clear Clear  
Wind Chill: 55°   Ceiling: Unl
Heat Index: 55°   Visibility: NA
Dew Point: 50°   Wind: 6mph
Humidity: 82%   Direction: 120°ESE
Pressure: 29.89"   Gusts: NA
Location:  29.6867°N, 95.4345°W
Report Text: KMCJ 220055Z AUTO 12005KT CLR 13/10 A2989 RMK AO1
Loading
Personal Weather Stations






























Interactive Weather Map New forecast layout! Learn more

10-Day Weather Forecast

Advertisements
Track Severe Weather on mobile